Main page
METAR-TAF:

METAR-TAF

Airports :

Pirassununga, São Paulo, Brazil

latitude: 21-59S, longitude: 047-20W, elevation: 597 m

Current weather observation

The report was made 4 hours and 6 minutes ago, at 02:00 UTC
Wind 6 kt from the South
Temperature 24°C
Humidity 65%
Pressure 1016 hPa
Visibility 10 km or more
no clouds below 1500 m and no cumulonimbus

METAR: SBYS 240200Z 18006KT CAVOK 24/17 Q1016

Time: 04:06 (06:06 UTC)

Forecast

The report was made 8 hours and 6 minutes ago, at 22:00 UTC
Forecast valid from 24 at 00 UTC to 24 at 12 UTC
Wind 7 kt from the South
Visibility 10 km or more
Few clouds at a height of 3000 ft

TAF: SBYS 232200Z 2400/2412 19007KT 9999 FEW030 TN21/2408Z TX26/2412Z RMK PDS

Weather observations and forecasts of more than 4000 airports (METAR and TAF reports).

The available stations are represented by yellow and red dots on the map.

Hover mouse over dot to see the name of the station.

Then click to see weather observations and forecasts.

To change the map : click on the green buttons with a black cross to zoom in, on the green button with a dash to zoom out, or on the green arrows for adjacent maps.


METAR-TAF: